Time;durP1;ratioP1;P1;durP2;ratioP2;P2;SDS_P1;SDS_P2;PMS_P1;PMS_P2;Temp;Humidity;BMP_temperature;BMP_pressure;BME280_temperature;BME280_humidity;BME280_pressure;Samples;Min_cycle;Max_cycle;Signal;HPM_P1;HPM_P2
2022/10/24 00:02:28;;;;;;;104.72;97.90;;;;;;;;;;10160272;28;20064;-72
2022/10/24 00:07:24;;;;;;;103.45;96.57;;;;;;;;;;10154957;28;20101;-72
2022/10/24 00:12:20;;;;;;;106.43;99.47;;;;;;;;;;10147622;28;20042;-72
2022/10/24 00:17:21;;;;;;;105.70;98.60;;;;;;;;;;10156738;28;20133;-72
2022/10/24 00:22:18;;;;;;;106.85;99.70;;;;;;;;;;10147490;28;20039;-71
2022/10/24 00:27:14;;;;;;;108.88;101.65;;;;;;;;;;10130865;28;20050;-72
2022/10/24 00:32:10;;;;;;;109.88;102.13;;;;;;;;;;10087838;28;20049;-72
2022/10/24 00:37:07;;;;;;;111.18;103.55;;;;;;;;;;10132509;28;20508;-73
2022/10/24 00:42:03;;;;;;;108.78;101.68;;;;;;;;;;10136172;28;20466;-72
2022/10/24 00:46:59;;;;;;;111.75;104.13;;;;;;;;;;10126298;28;20052;-72
2022/10/24 00:51:59;;;;;;;111.15;103.65;;;;;;;;;;10151806;28;20049;-72
2022/10/24 00:56:58;;;;;;;112.90;105.43;;;;;;;;;;10152513;28;20502;-72
2022/10/24 01:01:55;;;;;;;109.32;102.05;;;;;;;;;;10153511;28;20049;-72
2022/10/24 01:06:54;;;;;;;112.82;105.38;;;;;;;;;;11167665;23;20503;-72
2022/10/24 01:11:50;;;;;;;114.32;106.93;;;;;;;;;;10114918;28;20057;-72
2022/10/24 01:16:49;;;;;;;109.65;102.13;;;;;;;;;;10085660;28;20046;-69
2022/10/24 01:21:52;;;;;;;110.70;103.35;;;;;;;;;;10067621;28;20162;-69
2022/10/24 01:26:55;;;;;;;109.38;102.28;;;;;;;;;;10067575;28;20047;-70
2022/10/24 01:31:54;;;;;;;108.78;101.88;;;;;;;;;;10064284;28;20428;-69
2022/10/24 01:36:56;;;;;;;111.05;103.68;;;;;;;;;;10059413;28;20051;-69
2022/10/24 01:41:54;;;;;;;110.43;103.22;;;;;;;;;;10057104;28;20043;-69
2022/10/24 01:46:54;;;;;;;108.90;101.80;;;;;;;;;;10048181;28;20048;-69
2022/10/24 01:51:53;;;;;;;108.93;101.68;;;;;;;;;;10065436;28;20421;-69
2022/10/24 01:56:50;;;;;;;107.57;100.35;;;;;;;;;;10064467;28;20416;-69
2022/10/24 02:01:46;;;;;;;108.15;101.10;;;;;;;;;;10054823;28;20043;-69
2022/10/24 02:06:44;;;;;;;109.13;101.90;;;;;;;;;;10052169;28;20095;-69
2022/10/24 02:11:41;;;;;;;107.85;100.65;;;;;;;;;;10062914;28;20398;-70
2022/10/24 02:16:37;;;;;;;111.18;103.97;;;;;;;;;;10054471;28;20051;-69
2022/10/24 02:21:42;;;;;;;108.80;101.70;;;;;;;;;;10062741;28;20066;-69
2022/10/24 02:26:45;;;;;;;112.93;105.47;;;;;;;;;;10067895;28;20390;-70
2022/10/24 02:31:43;;;;;;;112.30;104.72;;;;;;;;;;10046115;28;20047;-69
2022/10/24 02:36:40;;;;;;;107.97;100.88;;;;;;;;;;10060181;28;20509;-69
2022/10/24 02:41:38;;;;;;;106.03;99.03;;;;;;;;;;10055299;28;20050;-70
2022/10/24 02:46:34;;;;;;;107.88;100.63;;;;;;;;;;10069461;28;20059;-69
2022/10/24 02:51:35;;;;;;;109.53;102.25;;;;;;;;;;10066048;28;20047;-70
2022/10/24 02:56:32;;;;;;;106.47;99.47;;;;;;;;;;10060594;28;20686;-70
2022/10/24 03:01:28;;;;;;;109.38;101.97;;;;;;;;;;10074589;28;20512;-70
2022/10/24 03:06:24;;;;;;;113.78;106.35;;;;;;;;;;10066698;28;20055;-69
2022/10/24 03:11:21;;;;;;;112.55;105.20;;;;;;;;;;10061661;28;20051;-69
2022/10/24 03:16:17;;;;;;;110.05;102.85;;;;;;;;;;10066252;28;20054;-70
2022/10/24 03:21:14;;;;;;;108.22;101.15;;;;;;;;;;10083701;28;20055;-69
2022/10/24 03:26:10;;;;;;;110.93;103.50;;;;;;;;;;10097212;28;20051;-70
2022/10/24 03:31:07;;;;;;;108.72;101.53;;;;;;;;;;10078270;28;20048;-69
2022/10/24 03:36:04;;;;;;;112.05;104.75;;;;;;;;;;10068845;28;20560;-69
2022/10/24 03:41:00;;;;;;;113.95;106.50;;;;;;;;;;10063948;28;20062;-70
2022/10/24 03:45:56;;;;;;;112.00;104.70;;;;;;;;;;10066442;28;20044;-70
2022/10/24 03:50:53;;;;;;;114.40;106.88;;;;;;;;;;10068768;28;20560;-69
2022/10/24 03:55:49;;;;;;;109.80;102.55;;;;;;;;;;10065089;28;20497;-69
2022/10/24 04:00:45;;;;;;;105.72;98.50;;;;;;;;;;10074532;28;20043;-69
2022/10/24 04:05:42;;;;;;;110.22;102.93;;;;;;;;;;10065049;28;20135;-69
2022/10/24 04:10:38;;;;;;;109.35;101.63;;;;;;;;;;10069080;28;20420;-68
2022/10/24 04:15:34;;;;;;;108.97;101.55;;;;;;;;;;10070180;28;20058;-69
2022/10/24 04:20:30;;;;;;;113.85;106.00;;;;;;;;;;10060061;28;20044;-69
2022/10/24 04:25:27;;;;;;;111.68;103.78;;;;;;;;;;10061841;28;20035;-68
2022/10/24 04:30:24;;;;;;;112.60;104.80;;;;;;;;;;10059440;28;20039;-68
2022/10/24 04:35:20;;;;;;;116.05;108.35;;;;;;;;;;10065476;28;20057;-69
2022/10/24 04:40:16;;;;;;;119.30;111.40;;;;;;;;;;10066338;28;20053;-69
2022/10/24 04:45:12;;;;;;;119.75;111.80;;;;;;;;;;10053729;28;20043;-70
2022/10/24 04:50:09;;;;;;;118.00;110.00;;;;;;;;;;10069008;28;20062;-69
2022/10/24 04:55:05;;;;;;;117.38;109.15;;;;;;;;;;10053828;28;20052;-69
2022/10/24 05:00:02;;;;;;;115.93;107.75;;;;;;;;;;10068936;28;20061;-69
2022/10/24 05:04:58;;;;;;;118.72;110.43;;;;;;;;;;10065906;28;20056;-69
2022/10/24 05:09:55;;;;;;;117.35;109.22;;;;;;;;;;10071040;28;20131;-69
2022/10/24 05:14:51;;;;;;;113.38;105.18;;;;;;;;;;10070969;28;20071;-69
2022/10/24 05:19:47;;;;;;;106.40;98.75;;;;;;;;;;10067338;28;20051;-70
2022/10/24 05:24:44;;;;;;;104.97;97.47;;;;;;;;;;10066722;28;20057;-69
2022/10/24 05:29:40;;;;;;;103.78;96.22;;;;;;;;;;10063823;28;20058;-69
2022/10/24 05:34:36;;;;;;;99.30;91.97;;;;;;;;;;10065090;28;20054;-69
2022/10/24 05:39:32;;;;;;;102.53;94.82;;;;;;;;;;10051772;28;20044;-70
2022/10/24 05:44:29;;;;;;;106.43;98.78;;;;;;;;;;10064198;28;20035;-69
2022/10/24 05:49:25;;;;;;;94.60;87.15;;;;;;;;;;10060882;28;20036;-69
2022/10/24 05:54:21;;;;;;;98.13;90.43;;;;;;;;;;10058988;28;20043;-70
2022/10/24 05:59:18;;;;;;;98.07;90.43;;;;;;;;;;10064771;28;20047;-69
2022/10/24 06:04:14;;;;;;;99.32;91.43;;;;;;;;;;10069174;28;20047;-69
2022/10/24 06:09:10;;;;;;;100.90;92.82;;;;;;;;;;10112662;28;20054;-69
2022/10/24 06:14:07;;;;;;;99.43;91.55;;;;;;;;;;10081482;28;20051;-69
2022/10/24 06:19:03;;;;;;;92.95;85.60;;;;;;;;;;10058224;28;20417;-69
2022/10/24 06:23:59;;;;;;;100.75;92.53;;;;;;;;;;10058803;28;20106;-69
2022/10/24 06:28:55;;;;;;;96.70;88.57;;;;;;;;;;10066279;28;20543;-69
2022/10/24 06:33:54;;;;;;;101.28;93.65;;;;;;;;;;10073459;28;20050;-69
2022/10/24 06:38:50;;;;;;;103.53;95.53;;;;;;;;;;10075450;28;20052;-69
2022/10/24 06:43:48;;;;;;;102.03;94.25;;;;;;;;;;10060058;28;20056;-70
2022/10/24 06:48:44;;;;;;;108.97;100.22;;;;;;;;;;10071633;28;20048;-69
2022/10/24 06:53:41;;;;;;;111.88;103.53;;;;;;;;;;10073221;28;20138;-69
2022/10/24 06:58:37;;;;;;;108.15;100.00;;;;;;;;;;10070247;28;20059;-69
2022/10/24 07:03:33;;;;;;;112.95;104.57;;;;;;;;;;10069726;28;20135;-69
2022/10/24 07:08:29;;;;;;;113.25;104.65;;;;;;;;;;10075701;28;20413;-69
2022/10/24 07:13:26;;;;;;;113.78;105.60;;;;;;;;;;10076099;28;20051;-70
2022/10/24 07:18:22;;;;;;;120.28;111.70;;;;;;;;;;10076216;28;20066;-69
2022/10/24 07:23:18;;;;;;;119.55;110.60;;;;;;;;;;10069906;28;20039;-69
2022/10/24 07:28:15;;;;;;;117.47;109.20;;;;;;;;;;10075670;28;20446;-69
2022/10/24 07:33:11;;;;;;;126.70;117.75;;;;;;;;;;10066921;28;20055;-69
2022/10/24 07:38:07;;;;;;;128.48;119.78;;;;;;;;;;10056786;28;20051;-69
2022/10/24 07:43:03;;;;;;;120.35;111.95;;;;;;;;;;10068353;28;20047;-69
2022/10/24 07:48:00;;;;;;;125.95;117.15;;;;;;;;;;10075854;28;20057;-69
2022/10/24 07:52:56;;;;;;;126.18;117.68;;;;;;;;;;10062744;28;20040;-69
2022/10/24 07:57:53;;;;;;;128.45;119.70;;;;;;;;;;10073097;28;20043;-70
2022/10/24 08:02:49;;;;;;;120.55;112.20;;;;;;;;;;10059699;28;20052;-69
2022/10/24 08:07:47;;;;;;;122.45;114.53;;;;;;;;;;10070298;28;20043;-69
2022/10/24 08:13:01;;;;;;;129.40;121.03;;;;;;;;;;10070327;28;20523;-69
2022/10/24 08:17:57;;;;;;;122.57;114.95;;;;;;;;;;10096501;28;20043;-69
2022/10/24 08:22:53;;;;;;;119.25;112.15;;;;;;;;;;10087086;28;20058;-69
2022/10/24 08:27:49;;;;;;;116.18;109.00;;;;;;;;;;10073611;28;20051;-70
2022/10/24 08:32:46;;;;;;;114.93;108.13;;;;;;;;;;10061400;28;20047;-70
2022/10/24 08:37:43;;;;;;;110.72;103.50;;;;;;;;;;10068142;28;20062;-69
2022/10/24 08:42:39;;;;;;;115.30;108.40;;;;;;;;;;10059163;28;20039;-69
2022/10/24 08:47:50;;;;;;;99.07;92.95;;;;;;;;;;10066048;28;20493;-70
2022/10/24 08:52:50;;;;;;;95.00;88.88;;;;;;;;;;10066614;28;20053;-69
2022/10/24 08:57:51;;;;;;;90.32;85.20;;;;;;;;;;10067277;28;20047;-70
2022/10/24 09:02:50;;;;;;;78.95;74.28;;;;;;;;;;10070493;28;20043;-70
2022/10/24 09:07:50;;;;;;;70.25;65.95;;;;;;;;;;10071266;28;20039;-69
2022/10/24 09:12:46;;;;;;;74.30;70.18;;;;;;;;;;10098414;28;20050;-69
2022/10/24 09:17:43;;;;;;;69.63;65.75;;;;;;;;;;10081402;28;20501;-70
2022/10/24 09:22:40;;;;;;;59.92;56.45;;;;;;;;;;10074619;28;20121;-69
2022/10/24 09:27:39;;;;;;;52.15;49.17;;;;;;;;;;10069743;28;20043;-69
2022/10/24 09:32:36;;;;;;;53.35;49.80;;;;;;;;;;10074543;28;20413;-69
2022/10/24 09:37:40;;;;;;;43.25;40.58;;;;;;;;;;10070107;28;20063;-69
2022/10/24 09:42:48;;;;;;;42.42;39.30;;;;;;;;;;10067250;28;20070;-69
2022/10/24 09:47:44;;;;;;;37.30;34.85;;;;;;;;;;10065999;28;20045;-69
2022/10/24 09:52:46;;;;;;;29.95;27.98;;;;;;;;;;10080048;28;20047;-69
2022/10/24 09:57:43;;;;;;;22.57;20.47;;;;;;;;;;10068506;28;20062;-69
2022/10/24 10:02:54;;;;;;;21.60;19.50;;;;;;;;;;10059531;28;20054;-71
2022/10/24 10:07:51;;;;;;;20.50;19.00;;;;;;;;;;10065134;28;20063;-71
2022/10/24 10:12:54;;;;;;;19.42;17.90;;;;;;;;;;10067250;28;20547;-70
2022/10/24 10:17:52;;;;;;;18.30;16.90;;;;;;;;;;10066126;28;20043;-71
2022/10/24 10:22:49;;;;;;;18.30;16.83;;;;;;;;;;10067145;28;20055;-70
2022/10/24 10:27:49;;;;;;;19.65;17.85;;;;;;;;;;10063909;28;20504;-70
2022/10/24 10:32:51;;;;;;;16.08;14.95;;;;;;;;;;10062009;28;20047;-70
2022/10/24 10:37:56;;;;;;;17.15;15.70;;;;;;;;;;10065740;28;20146;-70
2022/10/24 10:42:52;;;;;;;14.43;13.43;;;;;;;;;;10061545;28;20402;-71
2022/10/24 10:48:06;;;;;;;14.38;13.18;;;;;;;;;;10059058;28;20043;-70
2022/10/24 10:53:21;;;;;;;16.25;12.75;;;;;;;;;;10060578;28;20418;-70
2022/10/24 10:58:17;;;;;;;13.60;12.40;;;;;;;;;;10050079;28;20053;-71
2022/10/24 11:03:40;;;;;;;11.77;10.68;;;;;;;;;;10063899;28;20594;-70
2022/10/24 11:08:57;;;;;;;12.90;11.55;;;;;;;;;;10051195;28;20054;-71
2022/10/24 11:14:19;;;;;;;10.77;9.65;;;;;;;;;;10051761;28;20047;-70
2022/10/24 11:19:21;;;;;;;11.77;10.70;;;;;;;;;;10070541;28;20043;-71
2022/10/24 11:24:20;;;;;;;10.90;10.02;;;;;;;;;;10070652;28;20257;-70
2022/10/24 11:29:28;;;;;;;10.65;9.73;;;;;;;;;;10059591;28;20047;-71
2022/10/24 11:34:34;;;;;;;10.40;9.40;;;;;;;;;;10072924;28;20047;-70
2022/10/24 11:39:43;;;;;;;12.93;10.65;;;;;;;;;;10056443;28;20167;-71
2022/10/24 11:44:44;;;;;;;11.15;9.98;;;;;;;;;;10066364;28;20552;-70
2022/10/24 11:49:44;;;;;;;10.90;10.00;;;;;;;;;;10070039;28;20049;-70
2022/10/24 11:54:43;;;;;;;11.15;10.20;;;;;;;;;;10060381;28;20054;-71
2022/10/24 11:59:39;;;;;;;11.23;10.23;;;;;;;;;;10066169;28;20040;-70
2022/10/24 12:04:47;;;;;;;10.93;9.90;;;;;;;;;;10066854;28;20044;-70
2022/10/24 12:09:46;;;;;;;11.15;10.05;;;;;;;;;;10072399;28;20039;-70
2022/10/24 12:14:43;;;;;;;10.85;9.55;;;;;;;;;;10066208;28;20425;-71
2022/10/24 12:19:40;;;;;;;10.52;9.57;;;;;;;;;;10075926;28;20047;-71
2022/10/24 12:24:39;;;;;;;11.25;10.25;;;;;;;;;;10070861;28;20046;-70
2022/10/24 12:29:36;;;;;;;10.27;9.48;;;;;;;;;;10067987;28;20194;-70
2022/10/24 12:34:39;;;;;;;11.65;9.98;;;;;;;;;;10066267;28;20047;-70
2022/10/24 12:39:47;;;;;;;10.10;9.40;;;;;;;;;;10069335;28;20513;-70
2022/10/24 12:44:44;;;;;;;10.48;9.68;;;;;;;;;;10068752;28;20035;-70
2022/10/24 12:49:40;;;;;;;10.57;9.68;;;;;;;;;;10071780;28;20751;-71
2022/10/24 12:54:38;;;;;;;11.75;10.40;;;;;;;;;;10068399;28;20531;-70
2022/10/24 12:59:45;;;;;;;11.82;10.90;;;;;;;;;;10070471;28;20090;-71
2022/10/24 13:04:54;;;;;;;11.80;10.13;;;;;;;;;;10069385;28;20047;-70
2022/10/24 13:09:59;;;;;;;12.65;11.55;;;;;;;;;;10061920;28;20051;-70
2022/10/24 13:15:14;;;;;;;10.88;9.88;;;;;;;;;;10056661;28;20039;-71
2022/10/24 13:20:32;;;;;;;10.23;9.25;;;;;;;;;;10058334;28;20059;-70
2022/10/24 13:25:32;;;;;;;10.88;9.77;;;;;;;;;;10063178;28;20058;-71
2022/10/24 13:30:28;;;;;;;10.82;9.93;;;;;;;;;;10063442;28;20043;-70
2022/10/24 13:35:25;;;;;;;11.80;9.80;;;;;;;;;;10062137;28;20052;-70
2022/10/24 13:40:34;;;;;;;10.18;9.18;;;;;;;;;;10105608;28;20965;-70
2022/10/24 13:45:30;;;;;;;10.55;9.57;;;;;;;;;;10054840;28;20043;-70
2022/10/24 13:50:30;;;;;;;11.52;9.60;;;;;;;;;;10055211;28;20418;-70
2022/10/24 13:55:30;;;;;;;10.63;9.70;;;;;;;;;;10059541;28;20048;-71
2022/10/24 14:00:28;;;;;;;10.35;9.35;;;;;;;;;;10060271;28;20050;-71
2022/10/24 14:05:28;;;;;;;9.68;8.88;;;;;;;;;;10067712;28;20438;-70
2022/10/24 14:10:25;;;;;;;14.32;9.32;;;;;;;;;;10060846;28;20501;-70
2022/10/24 14:15:23;;;;;;;10.65;9.27;;;;;;;;;;10060424;28;22981;-70
2022/10/24 14:20:27;;;;;;;10.05;9.20;;;;;;;;;;10072272;28;20051;-70
2022/10/24 14:25:26;;;;;;;11.63;10.50;;;;;;;;;;10104493;28;20042;-70
2022/10/24 14:30:24;;;;;;;11.30;9.95;;;;;;;;;;10072756;28;20608;-70
2022/10/24 14:35:20;;;;;;;11.07;9.50;;;;;;;;;;10102549;28;20051;-70
2022/10/24 14:40:16;;;;;;;11.73;9.95;;;;;;;;;;10062608;28;20051;-71
2022/10/24 14:45:23;;;;;;;11.35;10.18;;;;;;;;;;10063394;28;20054;-70
2022/10/24 14:50:41;;;;;;;11.65;9.73;;;;;;;;;;10066960;28;20549;-71
2022/10/24 14:55:38;;;;;;;13.57;10.70;;;;;;;;;;10061349;28;20448;-70
2022/10/24 15:00:36;;;;;;;10.90;9.80;;;;;;;;;;10072751;28;20067;-70
2022/10/24 15:05:33;;;;;;;11.43;10.27;;;;;;;;;;10064777;28;20461;-70
2022/10/24 15:10:39;;;;;;;11.32;10.20;;;;;;;;;;10115312;28;20416;-70
2022/10/24 15:15:42;;;;;;;11.00;10.00;;;;;;;;;;10073853;28;20138;-70
2022/10/24 15:20:38;;;;;;;;;;;;;;;;;;10068421;28;20158;-71
2022/10/24 15:25:36;;;;;;;13.93;10.77;;;;;;;;;;10070099;28;19923;-71
2022/10/24 15:30:40;;;;;;;12.32;10.70;;;;;;;;;;10064522;28;20114;-71
2022/10/24 15:35:39;;;;;;;12.73;11.27;;;;;;;;;;10073628;28;20051;-71
2022/10/24 15:40:35;;;;;;;14.52;11.70;;;;;;;;;;10071402;28;20397;-71
2022/10/24 15:45:31;;;;;;;13.60;12.07;;;;;;;;;;10070654;28;20050;-71
2022/10/24 15:50:28;;;;;;;12.80;11.70;;;;;;;;;;10076665;28;20050;-71
2022/10/24 15:55:25;;;;;;;13.15;12.00;;;;;;;;;;10064566;28;20479;-70
2022/10/24 16:00:21;;;;;;;14.15;12.88;;;;;;;;;;10067687;28;20051;-70
2022/10/24 16:05:19;;;;;;;14.65;13.43;;;;;;;;;;10065970;28;20078;-71
2022/10/24 16:10:18;;;;;;;14.02;12.65;;;;;;;;;;10067837;28;20056;-70
2022/10/24 16:15:24;;;;;;;14.25;13.00;;;;;;;;;;10070241;28;20047;-71
2022/10/24 16:20:20;;;;;;;15.15;13.70;;;;;;;;;;10104224;28;20696;-71
2022/10/24 16:25:18;;;;;;;15.00;13.60;;;;;;;;;;10073433;28;20461;-71
2022/10/24 16:30:16;;;;;;;16.05;14.65;;;;;;;;;;10069020;28;20047;-71
2022/10/24 16:35:17;;;;;;;15.85;14.50;;;;;;;;;;10047926;28;20073;-71
2022/10/24 16:40:13;;;;;;;16.88;15.35;;;;;;;;;;10054277;28;20073;-71
2022/10/24 16:45:10;;;;;;;17.50;16.10;;;;;;;;;;10055802;28;20047;-71
2022/10/24 16:50:07;;;;;;;19.23;17.55;;;;;;;;;;10048602;28;20047;-71
2022/10/24 16:55:03;;;;;;;17.83;16.45;;;;;;;;;;10051899;28;20055;-71
2022/10/24 16:59:59;;;;;;;19.55;17.85;;;;;;;;;;10056728;28;20059;-71
2022/10/24 17:04:55;;;;;;;19.33;17.73;;;;;;;;;;10048228;28;20066;-70
2022/10/24 17:09:52;;;;;;;18.75;17.23;;;;;;;;;;10059231;28;20413;-70
2022/10/24 17:14:48;;;;;;;18.45;17.00;;;;;;;;;;10116502;28;20054;-70
2022/10/24 17:19:47;;;;;;;19.35;17.75;;;;;;;;;;10110431;28;20047;-70
2022/10/24 17:24:43;;;;;;;19.67;18.08;;;;;;;;;;10064840;28;20478;-71
2022/10/24 17:29:40;;;;;;;19.38;17.90;;;;;;;;;;10065148;28;20050;-70
2022/10/24 17:34:37;;;;;;;20.20;18.58;;;;;;;;;;10050309;28;20051;-70
2022/10/24 17:39:39;;;;;;;20.02;17.90;;;;;;;;;;10059338;28;20085;-71
2022/10/24 17:44:41;;;;;;;19.10;17.48;;;;;;;;;;10068918;28;20658;-70
2022/10/24 17:49:37;;;;;;;18.58;17.27;;;;;;;;;;10062893;28;20527;-70
2022/10/24 17:54:34;;;;;;;19.58;18.10;;;;;;;;;;10067648;28;20296;-70
2022/10/24 17:59:31;;;;;;;20.55;18.67;;;;;;;;;;10049555;28;20420;-70
2022/10/24 18:04:27;;;;;;;18.80;16.98;;;;;;;;;;10049949;28;20039;-70
2022/10/24 18:09:26;;;;;;;17.63;16.17;;;;;;;;;;10052532;28;20059;-70
2022/10/24 18:14:22;;;;;;;18.45;16.55;;;;;;;;;;10047359;28;20057;-70
2022/10/24 18:19:18;;;;;;;19.13;17.30;;;;;;;;;;10045934;28;20051;-70
2022/10/24 18:24:15;;;;;;;18.75;17.33;;;;;;;;;;10046661;28;20039;-70
2022/10/24 18:29:11;;;;;;;20.65;18.80;;;;;;;;;;10061705;28;20489;-71
2022/10/24 18:34:07;;;;;;;18.63;17.10;;;;;;;;;;10100534;28;20054;-70
2022/10/24 18:39:04;;;;;;;17.27;15.98;;;;;;;;;;10075527;28;20431;-71
2022/10/24 18:44:10;;;;;;;18.00;16.55;;;;;;;;;;10065307;28;20130;-71
2022/10/24 18:49:08;;;;;;;17.83;16.38;;;;;;;;;;10099875;28;20093;-70
2022/10/24 18:54:05;;;;;;;19.52;17.92;;;;;;;;;;10104579;28;20712;-71
2022/10/24 18:59:02;;;;;;;19.20;17.80;;;;;;;;;;10066748;28;20078;-70
2022/10/24 19:04:02;;;;;;;19.40;18.02;;;;;;;;;;10057324;28;20596;-71
2022/10/24 19:08:58;;;;;;;20.05;18.75;;;;;;;;;;10055598;28;20050;-70
2022/10/24 19:13:54;;;;;;;21.45;19.55;;;;;;;;;;10056838;28;20520;-70
2022/10/24 19:18:54;;;;;;;23.27;21.67;;;;;;;;;;10097807;28;20134;-71
2022/10/24 19:23:51;;;;;;;23.52;21.73;;;;;;;;;;10076233;28;20040;-70
2022/10/24 19:28:47;;;;;;;23.73;22.05;;;;;;;;;;10064399;28;20047;-70
2022/10/24 19:33:43;;;;;;;26.23;24.48;;;;;;;;;;10055339;28;20509;-71
2022/10/24 19:38:40;;;;;;;26.20;24.15;;;;;;;;;;10067222;28;20130;-70
2022/10/24 19:43:36;;;;;;;24.92;23.25;;;;;;;;;;10059792;28;20494;-71
2022/10/24 19:48:33;;;;;;;28.50;26.58;;;;;;;;;;10062547;28;20433;-70
2022/10/24 19:53:34;;;;;;;28.88;26.67;;;;;;;;;;10051838;28;20047;-70
2022/10/24 19:58:30;;;;;;;32.00;29.77;;;;;;;;;;10060454;28;20466;-70
2022/10/24 20:03:26;;;;;;;32.85;30.63;;;;;;;;;;10061951;28;20043;-70
2022/10/24 20:08:23;;;;;;;34.75;32.67;;;;;;;;;;10063062;28;20050;-70
2022/10/24 20:13:19;;;;;;;36.20;33.75;;;;;;;;;;10069619;28;20042;-70
2022/10/24 20:18:15;;;;;;;34.47;32.38;;;;;;;;;;10082634;28;20062;-69
2022/10/24 20:23:11;;;;;;;37.17;34.70;;;;;;;;;;10056514;28;20043;-70
2022/10/24 20:28:08;;;;;;;39.13;36.67;;;;;;;;;;10049517;28;20051;-70
2022/10/24 20:33:04;;;;;;;40.83;38.42;;;;;;;;;;10042706;28;20071;-70
2022/10/24 20:38:00;;;;;;;40.80;38.15;;;;;;;;;;10048420;28;20052;-71
2022/10/24 20:42:57;;;;;;;45.40;42.60;;;;;;;;;;10044931;28;20078;-70
2022/10/24 20:47:53;;;;;;;48.45;45.42;;;;;;;;;;10065426;28;20051;-70
2022/10/24 20:52:50;;;;;;;51.47;48.30;;;;;;;;;;10062390;28;20051;-70
2022/10/24 20:57:46;;;;;;;54.03;50.45;;;;;;;;;;10054372;28;20039;-71
2022/10/24 21:02:42;;;;;;;56.38;52.80;;;;;;;;;;10053672;28;20605;-70
2022/10/24 21:07:39;;;;;;;59.67;55.97;;;;;;;;;;10051797;28;20517;-70
2022/10/24 21:12:35;;;;;;;65.60;61.15;;;;;;;;;;10054276;29;20126;-70
2022/10/24 21:17:32;;;;;;;72.75;68.57;;;;;;;;;;10049906;28;20070;-70
2022/10/24 21:22:28;;;;;;;72.05;68.13;;;;;;;;;;10066152;28;20513;-70
2022/10/24 21:27:24;;;;;;;81.15;76.65;;;;;;;;;;10053606;28;20055;-70
2022/10/24 21:32:20;;;;;;;96.90;91.20;;;;;;;;;;10047854;28;20058;-70
2022/10/24 21:37:16;;;;;;;99.40;94.03;;;;;;;;;;10059476;28;20051;-70
2022/10/24 21:42:13;;;;;;;100.80;95.45;;;;;;;;;;10055654;28;20044;-70
2022/10/24 21:47:09;;;;;;;105.63;99.80;;;;;;;;;;10050485;28;20051;-70
2022/10/24 21:52:05;;;;;;;103.75;98.13;;;;;;;;;;10061478;28;20134;-70
2022/10/24 21:57:02;;;;;;;112.95;106.82;;;;;;;;;;10054473;28;20051;-70
2022/10/24 22:01:58;;;;;;;108.57;102.78;;;;;;;;;;10059442;28;20047;-71
2022/10/24 22:06:54;;;;;;;125.53;118.18;;;;;;;;;;10057653;28;20053;-70
2022/10/24 22:11:53;;;;;;;117.00;110.57;;;;;;;;;;10054181;28;20138;-70
2022/10/24 22:16:49;;;;;;;108.68;102.18;;;;;;;;;;10051468;28;20055;-70
2022/10/24 22:21:47;;;;;;;110.70;104.72;;;;;;;;;;10051982;28;20039;-71
2022/10/24 22:26:43;;;;;;;110.05;104.22;;;;;;;;;;10051958;28;20691;-70
2022/10/24 22:31:40;;;;;;;111.75;105.53;;;;;;;;;;10058505;28;20066;-70
2022/10/24 22:36:55;;;;;;;112.53;106.60;;;;;;;;;;10051924;28;20047;-71
2022/10/24 22:41:51;;;;;;;110.72;104.60;;;;;;;;;;10052355;28;20050;-70
2022/10/24 22:46:48;;;;;;;110.45;104.32;;;;;;;;;;10065313;28;20134;-70
2022/10/24 22:51:44;;;;;;;106.68;101.13;;;;;;;;;;10049854;28;20049;-70
2022/10/24 22:56:41;;;;;;;111.72;105.30;;;;;;;;;;10052173;28;20047;-70
2022/10/24 23:01:55;;;;;;;110.93;104.90;;;;;;;;;;10050300;28;20058;-69
2022/10/24 23:06:57;;;;;;;116.68;110.03;;;;;;;;;;10063216;28;20048;-70
2022/10/24 23:11:53;;;;;;;110.80;104.68;;;;;;;;;;10048816;28;20058;-70
2022/10/24 23:16:54;;;;;;;112.03;105.50;;;;;;;;;;10062462;28;20068;-70
2022/10/24 23:21:53;;;;;;;121.32;114.53;;;;;;;;;;10063695;28;20044;-70
2022/10/24 23:27:08;;;;;;;113.03;106.80;;;;;;;;;;10059891;28;20058;-70
2022/10/24 23:32:04;;;;;;;113.70;107.22;;;;;;;;;;10057011;28;20588;-70
2022/10/24 23:37:03;;;;;;;118.20;111.90;;;;;;;;;;10062901;28;20051;-70
2022/10/24 23:42:00;;;;;;;120.43;114.15;;;;;;;;;;10059731;28;20425;-70
2022/10/24 23:47:05;;;;;;;120.28;113.90;;;;;;;;;;10052196;28;20047;-70
2022/10/24 23:52:11;;;;;;;116.53;110.18;;;;;;;;;;10057652;28;20047;-71
2022/10/24 23:57:15;;;;;;;115.15;109.22;;;;;;;;;;10065892;28;20058;-70
